createdAt,value
2022-12-20T00:00:32.280Z,7.5
2022-12-20T00:01:36.282Z,7.6
2022-12-20T00:02:40.685Z,7.5
2022-12-20T00:03:44.218Z,7.5
2022-12-20T00:04:47.690Z,7.6
2022-12-20T00:05:51.145Z,7.6
2022-12-20T00:06:54.933Z,7.6
2022-12-20T00:07:58.426Z,7.6
2022-12-20T00:09:02.474Z,7.6
2022-12-20T00:10:05.897Z,7.6
2022-12-20T00:11:09.366Z,7.6
2022-12-20T00:12:12.465Z,7.6
2022-12-20T00:13:16.254Z,7.6
2022-12-20T00:14:19.528Z,7.6
2022-12-20T00:15:23.024Z,7.6
2022-12-20T00:16:26.494Z,7.6
2022-12-20T00:17:29.752Z,7.6
2022-12-20T00:18:32.691Z,7.6
2022-12-20T00:19:36.113Z,7.6
2022-12-20T00:20:38.686Z,7.6
2022-12-20T00:21:41.178Z,7.6
2022-12-20T00:22:44.310Z,7.6
2022-12-20T00:23:47.872Z,7.6
2022-12-20T00:24:50.986Z,7.6
2022-12-20T00:25:53.531Z,7.6
2022-12-20T00:26:56.662Z,7.6
2022-12-20T00:27:59.643Z,7.6
2022-12-20T00:29:03.125Z,7.6
2022-12-20T00:30:06.935Z,7.6
2022-12-20T00:31:10.753Z,7.6
2022-12-20T00:32:13.616Z,7.6
2022-12-20T00:33:17.367Z,7.6
2022-12-20T00:34:20.874Z,7.6
2022-12-20T00:35:24.382Z,7.6
2022-12-20T00:36:27.936Z,7.6
2022-12-20T00:37:31.022Z,7.6
2022-12-20T00:38:34.646Z,7.6
2022-12-20T00:39:37.792Z,7.6
2022-12-20T00:40:40.949Z,7.6
2022-12-20T00:41:59.247Z,7.6
2022-12-20T00:43:02.934Z,7.6
2022-12-20T00:44:07.047Z,7.6
2022-12-20T00:45:10.761Z,7.6
2022-12-20T00:46:13.847Z,7.6
2022-12-20T00:47:16.706Z,7.6
2022-12-20T00:48:19.731Z,7.6
2022-12-20T00:50:41.536Z,7.6
2022-12-20T00:51:44.635Z,7.6
2022-12-20T00:52:48.116Z,7.6
2022-12-20T00:53:51.191Z,7.6
2022-12-20T00:54:55.354Z,7.6
2022-12-20T00:55:59.426Z,7.6
2022-12-20T00:57:01.687Z,7.6
2022-12-20T00:58:05.436Z,7.6
2022-12-20T00:59:08.936Z,7.6
2022-12-20T01:00:12.005Z,7.6
2022-12-20T01:01:15.337Z,7.6
2022-12-20T01:02:19.091Z,7.6
2022-12-20T01:03:23.883Z,7.6
2022-12-20T01:04:28.039Z,7.6
2022-12-20T01:05:30.756Z,7.6
2022-12-20T01:06:33.506Z,7.7
2022-12-20T01:07:36.419Z,7.7
2022-12-20T01:08:39.769Z,7.7
2022-12-20T01:09:42.598Z,7.7
2022-12-20T01:10:46.320Z,7.7
2022-12-20T01:11:49.941Z,7.7
2022-12-20T01:12:51.836Z,7.7
2022-12-20T01:13:54.950Z,7.7
2022-12-20T01:14:58.481Z,7.7
2022-12-20T01:16:01.846Z,7.7
2022-12-20T01:17:05.505Z,7.7
2022-12-20T01:18:08.608Z,7.7
2022-12-20T01:19:12.657Z,7.7
2022-12-20T01:20:16.178Z,7.7
2022-12-20T01:21:18.931Z,7.7
2022-12-20T01:22:22.434Z,7.7
2022-12-20T01:23:25.533Z,7.7
2022-12-20T01:24:28.651Z,7.7
2022-12-20T01:25:31.776Z,7.7
2022-12-20T01:26:34.881Z,7.7
2022-12-20T01:27:37.791Z,7.7
2022-12-20T01:28:41.590Z,7.7
2022-12-20T01:29:44.658Z,7.7
2022-12-20T01:30:48.695Z,7.7
2022-12-20T01:31:51.950Z,7.7
2022-12-20T01:32:56.015Z,7.8
2022-12-20T01:33:59.137Z,7.8
2022-12-20T01:35:02.030Z,7.8
2022-12-20T01:36:05.012Z,7.8
2022-12-20T01:37:08.498Z,7.8
2022-12-20T01:38:11.949Z,7.8
2022-12-20T01:39:15.093Z,7.9
2022-12-20T01:40:18.851Z,7.8
2022-12-20T01:41:21.929Z,7.9
2022-12-20T01:42:25.764Z,7.9
2022-12-20T01:43:28.563Z,7.9
2022-12-20T01:44:31.361Z,7.9
2022-12-20T01:45:33.959Z,7.9
2022-12-20T01:46:37.869Z,7.9
2022-12-20T01:47:40.298Z,7.9
2022-12-20T01:48:43.915Z,7.9
2022-12-20T01:49:46.728Z,7.9
2022-12-20T01:50:49.839Z,7.9
2022-12-20T01:51:53.212Z,7.9
2022-12-20T01:52:56.971Z,7.9
2022-12-20T01:54:01.046Z,7.9
2022-12-20T01:55:03.789Z,7.8
2022-12-20T01:56:07.177Z,7.8
2022-12-20T01:57:10.678Z,7.8
2022-12-20T01:58:13.903Z,7.8
2022-12-20T01:59:17.575Z,7.8
2022-12-20T02:00:21.223Z,7.8
2022-12-20T02:01:25.608Z,7.8
2022-12-20T02:02:30.480Z,7.8
2022-12-20T02:03:34.495Z,7.8
2022-12-20T02:04:37.250Z,7.8
2022-12-20T02:05:40.117Z,7.8
2022-12-20T02:06:43.253Z,7.8
2022-12-20T02:07:46.365Z,7.8
2022-12-20T02:08:49.770Z,7.8
2022-12-20T02:09:52.302Z,7.8
2022-12-20T02:10:55.666Z,7.8
2022-12-20T02:11:58.805Z,7.8
2022-12-20T02:13:01.929Z,7.8
2022-12-20T02:14:05.681Z,7.7
2022-12-20T02:15:09.109Z,7.8
2022-12-20T02:16:12.376Z,7.7
2022-12-20T02:17:15.284Z,7.8
2022-12-20T02:18:19.046Z,7.8
2022-12-20T02:19:22.754Z,7.8
2022-12-20T02:20:25.732Z,7.8
2022-12-20T02:21:28.247Z,7.8
2022-12-20T02:22:31.597Z,7.8
2022-12-20T02:23:34.893Z,7.8
2022-12-20T02:24:38.350Z,7.8
2022-12-20T02:25:41.370Z,7.8
2022-12-20T02:26:43.967Z,7.7
2022-12-20T02:27:47.664Z,7.8
2022-12-20T02:28:50.224Z,7.8
2022-12-20T02:29:53.980Z,7.8
2022-12-20T02:30:57.419Z,7.8
2022-12-20T02:32:01.151Z,7.7
2022-12-20T02:33:04.097Z,7.8
2022-12-20T02:34:06.990Z,7.7
2022-12-20T02:35:08.929Z,7.8
2022-12-20T02:36:11.923Z,7.7
2022-12-20T02:37:15.002Z,7.7
2022-12-20T02:38:17.775Z,7.7
2022-12-20T02:39:21.412Z,7.7
2022-12-20T02:40:24.486Z,7.8
2022-12-20T02:41:27.877Z,7.7
2022-12-20T02:42:31.897Z,7.7
2022-12-20T02:43:34.374Z,7.7
2022-12-20T02:44:36.582Z,7.8
2022-12-20T02:45:40.224Z,7.7
2022-12-20T02:46:43.285Z,7.7
2022-12-20T02:47:46.369Z,7.8
2022-12-20T02:48:49.832Z,7.7
2022-12-20T02:49:53.243Z,7.7
2022-12-20T02:50:56.023Z,7.8
2022-12-20T02:51:59.137Z,7.8
2022-12-20T02:53:02.138Z,7.8
2022-12-20T02:54:05.609Z,7.7
2022-12-20T02:55:08.378Z,7.7
2022-12-20T02:56:11.488Z,7.8
2022-12-20T02:57:14.331Z,7.8
2022-12-20T02:58:17.052Z,7.8
2022-12-20T02:59:20.217Z,7.8
2022-12-20T03:00:23.295Z,7.8
2022-12-20T03:01:27.165Z,7.8
2022-12-20T03:02:31.224Z,7.8
2022-12-20T03:03:34.859Z,7.8
2022-12-20T03:04:38.270Z,7.8
2022-12-20T03:05:41.533Z,7.8
2022-12-20T03:06:44.924Z,7.8
2022-12-20T03:07:47.385Z,7.8
2022-12-20T03:08:50.555Z,7.8
2022-12-20T03:09:53.602Z,7.8
2022-12-20T03:10:56.612Z,7.8
2022-12-20T03:11:59.411Z,7.8
2022-12-20T03:13:02.880Z,7.8
2022-12-20T03:14:05.655Z,7.8
2022-12-20T03:15:08.756Z,7.8
2022-12-20T03:16:11.525Z,7.8
2022-12-20T03:17:14.965Z,7.8
2022-12-20T03:18:18.799Z,7.8
2022-12-20T03:19:21.864Z,7.8
2022-12-20T03:20:25.222Z,7.8
2022-12-20T03:21:28.637Z,7.8
2022-12-20T03:22:31.175Z,7.8
2022-12-20T03:23:33.919Z,7.8
2022-12-20T03:24:37.031Z,7.8
2022-12-20T03:25:40.066Z,7.8
2022-12-20T03:26:43.238Z,7.9
2022-12-20T03:27:46.437Z,7.8
2022-12-20T03:28:48.901Z,7.8
2022-12-20T03:29:51.927Z,7.9
2022-12-20T03:30:55.238Z,7.9
2022-12-20T03:31:58.837Z,7.9
2022-12-20T03:33:02.157Z,7.9
2022-12-20T03:34:05.361Z,7.9
2022-12-20T03:35:09.112Z,7.9
2022-12-20T03:36:12.317Z,7.9
2022-12-20T03:37:15.880Z,7.9
2022-12-20T03:38:19.011Z,7.9
2022-12-20T03:39:22.018Z,7.9
2022-12-20T03:40:25.420Z,7.9
2022-12-20T03:41:28.205Z,7.9
2022-12-20T03:42:31.212Z,7.9
2022-12-20T03:43:34.318Z,7.9
2022-12-20T03:44:37.033Z,7.9
2022-12-20T03:45:39.982Z,7.9
2022-12-20T03:46:42.933Z,7.9
2022-12-20T03:47:46.302Z,7.9
2022-12-20T03:48:49.747Z,7.8
2022-12-20T03:49:53.403Z,7.8
2022-12-20T03:50:56.298Z,7.8
2022-12-20T03:51:58.866Z,7.8
2022-12-20T03:53:02.610Z,7.8
2022-12-20T03:54:06.017Z,7.8
2022-12-20T03:55:09.379Z,7.8
2022-12-20T03:56:12.564Z,7.8
2022-12-20T03:57:15.866Z,7.8
2022-12-20T03:58:18.030Z,7.9
2022-12-20T03:59:22.049Z,7.8
2022-12-20T04:00:25.055Z,7.8
2022-12-20T04:01:28.447Z,7.9
2022-12-20T04:02:32.842Z,7.9
2022-12-20T04:03:36.778Z,7.9
2022-12-20T04:04:40.915Z,7.8
2022-12-20T04:05:44.050Z,7.8
2022-12-20T04:06:46.874Z,7.9
2022-12-20T04:07:50.134Z,7.8
2022-12-20T04:08:52.997Z,7.9
2022-12-20T04:09:55.737Z,7.9
2022-12-20T04:10:58.184Z,7.9
2022-12-20T04:12:01.287Z,7.9
2022-12-20T04:13:05.020Z,7.9
2022-12-20T04:14:08.074Z,7.9
2022-12-20T04:15:11.484Z,7.9
2022-12-20T04:16:14.892Z,7.9
2022-12-20T04:17:18.270Z,8
2022-12-20T04:18:21.635Z,8
2022-12-20T04:19:24.401Z,8
2022-12-20T04:20:28.168Z,8
2022-12-20T04:21:31.334Z,8
2022-12-20T04:22:34.646Z,8
2022-12-20T04:23:38.293Z,8
2022-12-20T04:24:42.373Z,8
2022-12-20T04:25:46.063Z,8
2022-12-20T04:26:48.819Z,8
2022-12-20T04:27:51.910Z,8.1
2022-12-20T04:28:54.747Z,8.1
2022-12-20T04:29:57.940Z,8.1
2022-12-20T04:31:00.452Z,8.1
2022-12-20T04:32:03.983Z,8.1
2022-12-20T04:33:07.476Z,8.2
2022-12-20T04:34:10.890Z,8.2
2022-12-20T04:35:13.420Z,8.2
2022-12-20T04:36:16.558Z,8.2
2022-12-20T04:37:19.720Z,8.2
2022-12-20T04:38:22.521Z,8.2
2022-12-20T04:39:25.225Z,8.2
2022-12-20T04:40:28.470Z,8.3
2022-12-20T04:41:31.200Z,8.3
2022-12-20T04:42:34.023Z,8.3
2022-12-20T04:43:37.235Z,8.3
2022-12-20T04:44:40.634Z,8.3
2022-12-20T04:45:43.710Z,8.3
2022-12-20T04:46:47.313Z,8.4
2022-12-20T04:47:51.038Z,8.4
2022-12-20T04:49:00.627Z,8.4
2022-12-20T04:50:04.126Z,8.4
2022-12-20T04:51:06.901Z,8.4
2022-12-20T04:52:10.279Z,8.4
2022-12-20T04:53:13.352Z,8.4
2022-12-20T04:54:17.044Z,8.4
2022-12-20T04:55:19.864Z,8.5
2022-12-20T04:56:22.772Z,8.4
2022-12-20T04:57:25.584Z,8.5
2022-12-20T04:58:28.060Z,8.5
2022-12-20T04:59:31.131Z,8.5
2022-12-20T05:00:33.588Z,8.5
2022-12-20T05:01:37.203Z,8.5
2022-12-20T05:02:42.132Z,8.5
2022-12-20T05:03:46.093Z,8.5
2022-12-20T05:04:49.568Z,8.5
2022-12-20T05:05:53.012Z,8.6
2022-12-20T05:06:56.240Z,8.5
2022-12-20T05:07:59.455Z,8.6
2022-12-20T05:09:02.836Z,8.6
2022-12-20T05:10:05.931Z,8.6
2022-12-20T05:11:09.307Z,8.6
2022-12-20T05:12:13.011Z,8.6
2022-12-20T05:13:15.168Z,8.6
2022-12-20T05:14:18.552Z,8.6
2022-12-20T05:15:22.188Z,8.6
2022-12-20T05:16:27.326Z,8.7
2022-12-20T05:17:30.386Z,8.7
2022-12-20T05:18:34.191Z,8.7
2022-12-20T05:19:37.566Z,8.7
2022-12-20T05:20:40.632Z,8.7
2022-12-20T05:21:43.356Z,8.7
2022-12-20T05:22:46.401Z,8.7
2022-12-20T05:23:49.819Z,8.7
2022-12-20T05:24:52.910Z,8.7
2022-12-20T05:25:55.983Z,8.7
2022-12-20T05:26:59.657Z,8.7
2022-12-20T05:28:03.783Z,8.8
2022-12-20T05:29:06.909Z,8.7
2022-12-20T05:30:09.494Z,8.7
2022-12-20T05:31:12.665Z,8.7
2022-12-20T05:32:15.735Z,8.8
2022-12-20T05:33:18.908Z,8.7
2022-12-20T05:34:21.925Z,8.8
2022-12-20T05:35:24.817Z,8.8
2022-12-20T05:36:28.070Z,8.8
2022-12-20T05:37:31.351Z,8.8
2022-12-20T05:38:34.107Z,8.8
2022-12-20T05:39:37.446Z,8.8
2022-12-20T05:40:40.248Z,8.8
2022-12-20T05:41:43.074Z,8.8
2022-12-20T05:42:46.788Z,8.8
2022-12-20T05:43:50.201Z,8.8
2022-12-20T05:44:52.813Z,8.7
2022-12-20T05:45:54.985Z,8.7
2022-12-20T05:46:58.960Z,8.8
2022-12-20T05:48:02.090Z,8.7
2022-12-20T05:49:05.534Z,8.7
2022-12-20T05:50:19.441Z,8.7
2022-12-20T05:51:22.624Z,8.7
2022-12-20T05:52:25.347Z,8.7
2022-12-20T05:53:28.688Z,8.7
2022-12-20T05:54:32.157Z,8.7
2022-12-20T05:55:35.363Z,8.7
2022-12-20T05:56:39.047Z,8.7
2022-12-20T05:57:42.606Z,8.7
2022-12-20T05:58:45.666Z,8.7
2022-12-20T05:59:49.439Z,8.7
2022-12-20T06:00:52.526Z,8.7
2022-12-20T06:01:57.207Z,8.7
2022-12-20T06:03:01.355Z,8.7
2022-12-20T06:04:05.271Z,8.7
2022-12-20T06:05:08.703Z,8.7
2022-12-20T06:06:16.173Z,8.7
2022-12-20T06:07:19.249Z,8.7
2022-12-20T06:08:22.209Z,8.7
2022-12-20T06:09:25.920Z,8.7
2022-12-20T06:10:28.470Z,8.7
2022-12-20T06:11:31.667Z,8.7
2022-12-20T06:12:35.536Z,8.7
2022-12-20T06:13:38.619Z,8.7
2022-12-20T06:14:41.363Z,8.7
2022-12-20T06:15:45.139Z,8.7
2022-12-20T06:16:48.510Z,8.7
2022-12-20T06:17:51.483Z,8.7
2022-12-20T06:18:54.470Z,8.7
2022-12-20T06:19:57.306Z,8.7
2022-12-20T06:21:00.963Z,8.7
2022-12-20T06:22:04.341Z,8.7
2022-12-20T06:23:07.492Z,8.7
2022-12-20T06:24:10.524Z,8.7
2022-12-20T06:25:14.067Z,8.7
2022-12-20T06:26:16.844Z,8.7
2022-12-20T06:27:20.073Z,8.7
2022-12-20T06:28:23.843Z,8.7
2022-12-20T06:29:27.143Z,8.7
2022-12-20T06:30:34.817Z,8.7
2022-12-20T06:31:38.731Z,8.7
2022-12-20T06:32:42.077Z,8.6
2022-12-20T06:33:45.156Z,8.7
2022-12-20T06:34:48.556Z,8.7
2022-12-20T06:35:51.322Z,8.7
2022-12-20T06:36:54.370Z,8.7
2022-12-20T06:37:56.868Z,8.7
2022-12-20T06:39:10.308Z,8.7
2022-12-20T06:40:14.147Z,8.7
2022-12-20T06:41:17.171Z,8.7
2022-12-20T06:42:20.062Z,8.7
2022-12-20T06:43:23.441Z,8.7
2022-12-20T06:44:25.995Z,8.7
2022-12-20T06:45:28.932Z,8.7
2022-12-20T06:46:38.656Z,8.7
2022-12-20T06:47:42.315Z,8.7
2022-12-20T06:48:46.006Z,8.7
2022-12-20T06:49:48.810Z,8.7
2022-12-20T06:50:57.063Z,8.7
2022-12-20T06:51:59.814Z,8.7
2022-12-20T06:53:02.722Z,8.7
2022-12-20T06:54:05.768Z,8.7
2022-12-20T06:55:08.990Z,8.7
2022-12-20T06:56:12.012Z,8.7
2022-12-20T06:57:15.277Z,8.7
2022-12-20T06:58:18.970Z,8.7
2022-12-20T06:59:22.534Z,8.7
2022-12-20T07:00:28.237Z,8.7
2022-12-20T07:01:32.044Z,8.7
2022-12-20T07:02:36.145Z,8.7
2022-12-20T07:03:41.012Z,8.7
2022-12-20T07:04:44.341Z,8.7
2022-12-20T07:05:47.055Z,8.7
2022-12-20T07:06:49.880Z,8.7
2022-12-20T07:07:53.315Z,8.7
2022-12-20T07:08:56.402Z,8.7
2022-12-20T07:09:59.515Z,8.7
2022-12-20T07:11:02.524Z,8.7
2022-12-20T07:12:06.287Z,8.7
2022-12-20T07:13:09.748Z,8.8
2022-12-20T07:14:12.582Z,8.8
2022-12-20T07:15:16.048Z,8.8
2022-12-20T07:16:20.212Z,8.8
2022-12-20T07:17:23.109Z,8.8
2022-12-20T07:18:28.396Z,8.8
2022-12-20T07:19:32.976Z,8.8
2022-12-20T07:20:35.469Z,8.8
2022-12-20T07:21:38.297Z,8.8
2022-12-20T07:22:41.852Z,8.9
2022-12-20T07:23:46.114Z,8.9
2022-12-20T07:24:49.543Z,8.9
2022-12-20T07:25:52.338Z,8.9
2022-12-20T07:26:55.850Z,8.9
2022-12-20T07:27:58.838Z,8.9
2022-12-20T07:29:01.912Z,8.9
2022-12-20T07:30:05.434Z,9
2022-12-20T07:31:08.797Z,9
2022-12-20T07:32:12.082Z,9
2022-12-20T07:33:15.386Z,9
2022-12-20T07:34:18.203Z,9
2022-12-20T07:35:21.911Z,9
2022-12-20T07:36:25.773Z,9
2022-12-20T07:37:29.427Z,9
2022-12-20T07:38:33.218Z,9.1
2022-12-20T07:39:36.114Z,9
2022-12-20T07:40:39.894Z,9
2022-12-20T07:41:42.512Z,9
2022-12-20T07:42:49.743Z,9.1
2022-12-20T07:43:53.483Z,9
2022-12-20T07:44:56.923Z,9.1
2022-12-20T07:46:01.292Z,9.1
2022-12-20T07:47:05.481Z,9.1
2022-12-20T07:48:21.519Z,9.1
2022-12-20T07:49:25.277Z,9.1
2022-12-20T07:50:29.298Z,9.1
2022-12-20T07:51:33.085Z,9.1
2022-12-20T07:52:37.124Z,9.2
2022-12-20T07:53:39.911Z,9.2
2022-12-20T07:54:42.366Z,9.2
2022-12-20T07:55:46.065Z,9.2
2022-12-20T07:56:49.580Z,9.2
2022-12-20T07:57:52.874Z,9.2
2022-12-20T07:58:55.785Z,9.2
2022-12-20T07:59:59.017Z,9.2
2022-12-20T08:01:03.010Z,9.2
2022-12-20T08:02:07.123Z,9.2
2022-12-20T08:03:12.502Z,9.2
2022-12-20T08:04:16.540Z,9.2
2022-12-20T08:05:19.840Z,9.2
2022-12-20T08:06:23.233Z,9.2
2022-12-20T08:07:27.716Z,9.2
2022-12-20T08:08:31.779Z,9.2
2022-12-20T08:09:35.510Z,9.2
2022-12-20T08:10:38.670Z,9.2
2022-12-20T08:11:42.369Z,9.2
2022-12-20T08:12:45.958Z,9.2
2022-12-20T08:13:58.835Z,9.2
2022-12-20T08:15:01.941Z,9.2
2022-12-20T08:16:05.369Z,9.3
2022-12-20T08:17:09.369Z,9.2
2022-12-20T08:18:12.805Z,9.3
2022-12-20T08:19:16.634Z,9.3
2022-12-20T08:20:20.445Z,9.3
2022-12-20T08:21:23.337Z,9.3
2022-12-20T08:22:26.530Z,9.3
2022-12-20T08:23:29.932Z,9.2
2022-12-20T08:24:33.704Z,9.3
2022-12-20T08:25:42.972Z,9.2
2022-12-20T08:26:46.280Z,9.3
2022-12-20T08:27:49.063Z,9.3
2022-12-20T08:28:52.467Z,9.3
2022-12-20T08:29:55.467Z,9.2
2022-12-20T08:30:58.352Z,9.3
2022-12-20T08:32:01.723Z,9.3
2022-12-20T08:33:05.180Z,9.3
2022-12-20T08:34:08.996Z,9.3
2022-12-20T08:35:12.523Z,9.3
2022-12-20T08:36:16.372Z,9.3
2022-12-20T08:37:19.393Z,9.3
2022-12-20T08:38:22.893Z,9.3
2022-12-20T08:39:25.659Z,9.3
2022-12-20T08:40:28.656Z,9.3
2022-12-20T08:41:32.473Z,9.3
2022-12-20T08:42:35.243Z,9.3
2022-12-20T08:43:40.381Z,9.3
2022-12-20T08:44:44.609Z,9.3
2022-12-20T08:45:48.227Z,9.3
2022-12-20T08:46:51.156Z,9.3
2022-12-20T08:47:54.522Z,9.3
2022-12-20T08:48:57.906Z,9.4
2022-12-20T08:50:01.752Z,9.4
2022-12-20T08:51:06.220Z,9.3
2022-12-20T08:52:09.981Z,9.3
2022-12-20T08:53:13.077Z,9.3
2022-12-20T08:54:16.235Z,9.3
2022-12-20T08:55:29.638Z,9.3
2022-12-20T08:56:33.057Z,9.3
2022-12-20T08:57:36.535Z,9.3
2022-12-20T08:58:40.238Z,9.3
2022-12-20T08:59:43.047Z,9.3
2022-12-20T09:00:46.037Z,9.3
2022-12-20T09:01:49.304Z,9.3
2022-12-20T09:02:53.885Z,9.3
2022-12-20T09:03:58.744Z,9.3
2022-12-20T09:05:02.228Z,9.3
2022-12-20T09:06:05.647Z,9.3
2022-12-20T09:07:09.479Z,9.3
2022-12-20T09:08:13.123Z,9.3
2022-12-20T09:09:15.936Z,9.3
2022-12-20T09:10:19.529Z,9.3
2022-12-20T09:11:23.177Z,9.3
2022-12-20T09:12:26.302Z,9.3
2022-12-20T09:13:30.149Z,9.3
2022-12-20T09:14:33.536Z,9.3
2022-12-20T09:15:37.353Z,9.3
2022-12-20T09:16:40.934Z,9.3
2022-12-20T09:17:44.097Z,9.4
2022-12-20T09:18:46.686Z,9.4
2022-12-20T09:19:50.417Z,9.4
2022-12-20T09:20:53.538Z,9.4
2022-12-20T09:21:56.583Z,9.4
2022-12-20T09:23:00.155Z,9.4
2022-12-20T09:24:03.299Z,9.4
2022-12-20T09:25:06.413Z,9.4
2022-12-20T09:26:09.855Z,9.4
2022-12-20T09:27:12.403Z,9.4
2022-12-20T09:28:15.475Z,9.4
2022-12-20T09:29:35.751Z,9.4
2022-12-20T09:30:40.141Z,9.4
2022-12-20T09:31:45.265Z,9.4
2022-12-20T09:32:48.663Z,9.4
2022-12-20T09:33:51.108Z,9.4
2022-12-20T09:34:54.503Z,9.4
2022-12-20T09:35:57.091Z,9.4
2022-12-20T09:37:00.500Z,9.4
2022-12-20T09:38:04.074Z,9.4
2022-12-20T09:39:07.463Z,9.4
2022-12-20T09:40:11.109Z,9.4
2022-12-20T09:41:23.365Z,9.4
2022-12-20T09:42:26.706Z,9.4
2022-12-20T09:43:30.512Z,9.4
2022-12-20T09:44:33.605Z,9.4
2022-12-20T09:45:36.583Z,9.4
2022-12-20T09:46:40.188Z,9.4
2022-12-20T09:47:43.872Z,9.4
2022-12-20T09:48:47.237Z,9.4
2022-12-20T09:49:50.333Z,9.4
2022-12-20T09:50:53.169Z,9.5
2022-12-20T09:51:56.642Z,9.4
2022-12-20T09:52:59.383Z,9.5
2022-12-20T09:54:03.091Z,9.5
2022-12-20T09:55:06.444Z,9.4
2022-12-20T09:56:09.880Z,9.5
2022-12-20T09:57:13.558Z,9.5
2022-12-20T09:58:16.669Z,9.5
2022-12-20T09:59:20.154Z,9.5
2022-12-20T10:00:23.617Z,9.5
2022-12-20T10:01:40.580Z,9.5
2022-12-20T10:03:11.835Z,9.5
2022-12-20T10:04:17.652Z,9.6
2022-12-20T10:05:23.244Z,9.6
2022-12-20T10:06:27.283Z,9.6
2022-12-20T10:07:30.779Z,9.6
2022-12-20T10:08:34.082Z,9.6
2022-12-20T10:09:37.546Z,9.6
2022-12-20T10:10:40.566Z,9.6
2022-12-20T10:11:51.675Z,9.6
2022-12-20T10:12:55.426Z,9.6
2022-12-20T10:13:59.144Z,9.6
2022-12-20T10:15:03.193Z,9.6
2022-12-20T10:16:05.891Z,9.6
2022-12-20T10:17:09.475Z,9.6
2022-12-20T10:18:12.927Z,9.6
2022-12-20T10:19:16.027Z,9.6
2022-12-20T10:20:19.149Z,9.6
2022-12-20T10:21:22.289Z,9.7
2022-12-20T10:22:25.378Z,9.7
2022-12-20T10:23:34.461Z,9.7
2022-12-20T10:24:36.983Z,9.7
2022-12-20T10:25:40.733Z,9.7
2022-12-20T10:26:42.909Z,9.7
2022-12-20T10:27:45.806Z,9.7
2022-12-20T10:28:55.060Z,9.8
2022-12-20T10:29:58.534Z,9.8
2022-12-20T10:31:02.390Z,9.8
2022-12-20T10:32:05.416Z,9.8
2022-12-20T10:33:09.410Z,9.8
2022-12-20T10:34:11.852Z,9.8
2022-12-20T10:35:15.244Z,9.8
2022-12-20T10:36:18.611Z,9.8
2022-12-20T10:37:22.023Z,9.8
2022-12-20T10:38:24.746Z,9.8
2022-12-20T10:39:27.950Z,9.9
2022-12-20T10:41:23.125Z,9.9
2022-12-20T10:42:27.236Z,9.9
2022-12-20T10:43:31.277Z,10
2022-12-20T10:44:34.769Z,9.9
2022-12-20T10:45:37.874Z,10
2022-12-20T10:46:41.654Z,10
2022-12-20T10:47:45.733Z,10
2022-12-20T10:48:48.880Z,10
2022-12-20T10:49:51.587Z,10.1
2022-12-20T10:50:54.701Z,10.1
2022-12-20T10:51:58.977Z,10.1
2022-12-20T10:53:02.464Z,10.1
2022-12-20T10:54:06.579Z,10.1
2022-12-20T10:55:09.656Z,10.2
2022-12-20T10:56:12.653Z,10.2
2022-12-20T10:57:16.334Z,10.2
2022-12-20T10:58:20.392Z,10.3
2022-12-20T10:59:23.911Z,10.3
2022-12-20T11:00:27.696Z,10.3
2022-12-20T11:01:31.198Z,10.3
2022-12-20T11:02:44.051Z,10.4
2022-12-20T11:03:49.696Z,10.4
2022-12-20T11:04:53.674Z,10.4
2022-12-20T11:05:56.874Z,10.4
2022-12-20T11:07:00.257Z,10.5
2022-12-20T11:08:50.030Z,10.6
2022-12-20T11:10:03.756Z,10.6
2022-12-20T11:11:07.024Z,10.7
2022-12-20T11:12:10.364Z,10.7
2022-12-20T11:13:14.041Z,10.7
2022-12-20T11:14:18.175Z,10.7
2022-12-20T11:15:35.420Z,10.8
2022-12-20T11:16:40.847Z,10.8
2022-12-20T11:17:44.799Z,10.8
2022-12-20T11:18:48.104Z,10.8
2022-12-20T11:19:51.538Z,10.8
2022-12-20T11:20:54.266Z,10.8
2022-12-20T11:21:57.546Z,10.8
2022-12-20T11:23:01.077Z,10.8
2022-12-20T11:24:04.876Z,10.9
2022-12-20T11:25:07.986Z,10.9
2022-12-20T11:26:11.679Z,10.9
2022-12-20T11:27:16.911Z,10.9
2022-12-20T11:28:21.017Z,10.9
2022-12-20T11:29:24.758Z,10.9
2022-12-20T11:30:27.655Z,10.9
2022-12-20T11:31:31.569Z,10.9
2022-12-20T11:32:34.920Z,10.9
2022-12-20T11:33:38.454Z,10.9
2022-12-20T11:34:41.553Z,10.9
2022-12-20T11:35:45.212Z,10.9
2022-12-20T11:36:47.409Z,10.9
2022-12-20T11:37:50.617Z,10.9
2022-12-20T11:38:53.938Z,10.9
2022-12-20T11:39:57.325Z,10.9
2022-12-20T11:41:01.049Z,10.9
2022-12-20T11:42:05.144Z,10.9
2022-12-20T11:43:08.214Z,10.9
2022-12-20T11:44:28.574Z,10.8
2022-12-20T11:45:32.240Z,10.8
2022-12-20T11:46:35.660Z,10.8
2022-12-20T11:47:39.343Z,10.8
2022-12-20T11:48:43.093Z,10.8
2022-12-20T11:49:45.817Z,10.8
2022-12-20T11:50:49.628Z,10.8
2022-12-20T11:51:53.016Z,10.8
2022-12-20T11:52:56.122Z,10.8
2022-12-20T11:53:59.470Z,10.8
2022-12-20T11:55:02.831Z,10.8
2022-12-20T11:56:05.841Z,10.8
2022-12-20T11:57:08.863Z,10.8
2022-12-20T11:58:21.554Z,10.8
2022-12-20T11:59:24.975Z,10.8
2022-12-20T12:00:28.747Z,10.8
2022-12-20T12:01:32.373Z,10.8
2022-12-20T12:02:36.743Z,10.8
2022-12-20T12:03:41.132Z,10.7
2022-12-20T12:04:45.043Z,10.8
2022-12-20T12:05:48.429Z,10.8
2022-12-20T12:06:51.400Z,10.7
2022-12-20T12:07:55.241Z,10.8
2022-12-20T12:08:59.066Z,10.8
2022-12-20T12:10:02.468Z,10.7
2022-12-20T12:11:05.884Z,10.7
2022-12-20T12:12:10.772Z,10.7
2022-12-20T12:13:14.230Z,10.8
2022-12-20T12:14:17.636Z,10.8
2022-12-20T12:15:20.995Z,10.7
2022-12-20T12:16:24.781Z,10.8
2022-12-20T12:17:29.112Z,10.8
2022-12-20T12:18:31.972Z,10.8
2022-12-20T12:19:35.725Z,10.8
2022-12-20T12:20:39.152Z,10.8
2022-12-20T12:21:42.291Z,10.8
2022-12-20T12:22:45.040Z,10.8
2022-12-20T12:23:48.088Z,10.8
2022-12-20T12:24:51.454Z,10.8
2022-12-20T12:25:55.275Z,10.8
2022-12-20T12:26:59.078Z,10.8
2022-12-20T12:28:02.870Z,10.8
2022-12-20T12:29:06.593Z,10.8
2022-12-20T12:30:09.475Z,10.8
2022-12-20T12:31:12.563Z,10.8
2022-12-20T12:32:16.081Z,10.8
2022-12-20T12:33:26.307Z,10.8
2022-12-20T12:34:41.417Z,10.8
2022-12-20T12:35:44.983Z,10.8
2022-12-20T12:36:48.647Z,10.8
2022-12-20T12:37:52.363Z,10.8
2022-12-20T12:39:03.311Z,10.8
2022-12-20T12:40:07.536Z,10.9
2022-12-20T12:41:10.835Z,10.9
2022-12-20T12:42:14.258Z,10.9
2022-12-20T12:43:17.902Z,10.9
2022-12-20T12:44:21.657Z,10.9
2022-12-20T12:45:24.515Z,11
2022-12-20T12:46:28.267Z,11
2022-12-20T12:47:32.254Z,11
2022-12-20T12:48:35.967Z,11
2022-12-20T12:49:39.382Z,11
2022-12-20T12:50:43.225Z,11
2022-12-20T12:51:46.525Z,11
2022-12-20T12:52:49.981Z,11
2022-12-20T12:53:53.380Z,11
2022-12-20T12:54:56.383Z,11
2022-12-20T12:56:45.798Z,11
2022-12-20T12:57:51.055Z,11
2022-12-20T12:58:54.738Z,11
2022-12-20T12:59:58.550Z,11
2022-12-20T13:01:02.205Z,11
2022-12-20T13:02:06.329Z,11
2022-12-20T13:03:10.967Z,11
2022-12-20T13:04:15.325Z,11
2022-12-20T13:05:26.856Z,11
2022-12-20T13:06:30.619Z,11
2022-12-20T13:07:33.466Z,11
2022-12-20T13:08:37.420Z,11
2022-12-20T13:09:41.078Z,11
2022-12-20T13:10:44.833Z,11
2022-12-20T13:12:04.452Z,11
2022-12-20T13:13:15.295Z,11
2022-12-20T13:14:17.784Z,11
2022-12-20T13:15:21.493Z,11
2022-12-20T13:17:15.311Z,11
2022-12-20T13:18:29.875Z,11
2022-12-20T13:19:33.719Z,11
2022-12-20T13:20:37.481Z,11
2022-12-20T13:21:41.243Z,11
2022-12-20T13:22:44.612Z,11
2022-12-20T13:23:48.000Z,11
2022-12-20T13:24:51.691Z,11
2022-12-20T13:25:55.006Z,11
2022-12-20T13:26:57.743Z,11
2022-12-20T13:28:11.402Z,11
2022-12-20T13:29:14.921Z,11
2022-12-20T13:30:18.633Z,11
2022-12-20T13:31:22.594Z,11
2022-12-20T13:32:26.491Z,11
2022-12-20T13:33:29.309Z,11
2022-12-20T13:34:32.207Z,11
2022-12-20T13:35:36.373Z,11
2022-12-20T13:36:39.810Z,11
2022-12-20T13:37:43.656Z,11
2022-12-20T13:38:57.732Z,11
2022-12-20T13:40:01.514Z,11
2022-12-20T13:41:04.618Z,11
2022-12-20T13:42:07.638Z,11
2022-12-20T13:43:10.795Z,11
2022-12-20T13:44:14.161Z,11
2022-12-20T13:45:18.290Z,11
2022-12-20T13:46:21.381Z,11
2022-12-20T13:47:24.824Z,11
2022-12-20T13:48:27.386Z,11
2022-12-20T13:49:30.449Z,11
2022-12-20T13:50:33.921Z,11
2022-12-20T13:51:37.652Z,11
2022-12-20T13:52:40.721Z,11
2022-12-20T13:53:44.580Z,11
2022-12-20T13:54:48.367Z,11
2022-12-20T13:55:52.319Z,11
2022-12-20T13:56:55.969Z,11
2022-12-20T13:57:59.438Z,10.9
2022-12-20T13:59:01.885Z,11
2022-12-20T14:00:08.761Z,11
2022-12-20T14:01:12.705Z,11
2022-12-20T14:02:16.919Z,11
2022-12-20T14:03:21.862Z,11
2022-12-20T14:04:26.514Z,11
2022-12-20T14:05:29.331Z,10.9
2022-12-20T14:06:32.727Z,10.9
2022-12-20T14:07:36.491Z,10.9
2022-12-20T14:08:39.964Z,10.9
2022-12-20T14:09:43.765Z,10.9
2022-12-20T14:10:47.418Z,10.9
2022-12-20T14:11:50.925Z,10.9
2022-12-20T14:12:54.665Z,10.9
2022-12-20T14:13:58.075Z,10.9
2022-12-20T14:15:01.436Z,10.9
2022-12-20T14:16:04.791Z,10.9
2022-12-20T14:17:08.323Z,10.9
2022-12-20T14:18:12.711Z,10.9
2022-12-20T14:19:16.434Z,10.9
2022-12-20T14:20:20.118Z,10.9
2022-12-20T14:21:23.868Z,10.8
2022-12-20T14:22:27.539Z,10.9
2022-12-20T14:23:31.290Z,10.8
2022-12-20T14:24:34.105Z,10.9
2022-12-20T14:25:38.240Z,10.9
2022-12-20T14:26:42.296Z,10.9
2022-12-20T14:27:45.092Z,10.8
2022-12-20T14:28:47.842Z,10.8
2022-12-20T14:29:51.378Z,10.8
2022-12-20T14:30:54.856Z,10.8
2022-12-20T14:31:58.242Z,10.8
2022-12-20T14:33:02.031Z,10.9
2022-12-20T14:34:05.404Z,10.8
2022-12-20T14:35:09.088Z,10.8
2022-12-20T14:36:13.175Z,10.8
2022-12-20T14:37:16.465Z,10.8
2022-12-20T14:38:19.826Z,10.8
2022-12-20T14:39:23.951Z,10.9
2022-12-20T14:40:27.031Z,10.8
2022-12-20T14:41:30.505Z,10.8
2022-12-20T14:42:34.267Z,10.9